Time;durP1;ratioP1;P1;durP2;ratioP2;P2;SDS_P1;SDS_P2;PMS_P1;PMS_P2;Temp;Humidity;BMP_temperature;BMP_pressure;BME280_temperature;BME280_humidity;BME280_pressure;Samples;Min_cycle;Max_cycle;Signal;HPM_P1;HPM_P2
2021/08/28 00:02:25;;;;;;;3.83;3.43;;;;;;;16.16;70.67;96652.59;5055190;28;20211;-72
2021/08/28 00:04:51;;;;;;;7.13;3.20;;;;;;;16.22;70.63;96654.44;5052754;28;20583;-70
2021/08/28 00:07:17;;;;;;;4.07;3.27;;;;;;;16.22;70.82;96655.25;5053041;28;20440;-70
2021/08/28 00:09:42;;;;;;;4.60;3.10;;;;;;;16.04;70.89;96655.84;5052251;28;20925;-70
2021/08/28 00:12:08;;;;;;;4.20;3.10;;;;;;;16.14;70.56;96655.47;5052728;28;20566;-72
2021/08/28 00:14:34;;;;;;;5.20;3.37;;;;;;;16.07;71.27;96655.44;5051235;28;20175;-72
2021/08/28 00:16:59;;;;;;;5.00;3.80;;;;;;;16.17;70.82;96649.78;5052897;28;20207;-69
2021/08/28 00:19:25;;;;;;;5.63;2.80;;;;;;;16.24;70.51;96649.78;5037160;28;20174;-71
2021/08/28 00:21:51;;;;;;;11.60;3.40;;;;;;;16.11;71.17;96655.84;5038484;28;20212;-70
2021/08/28 00:24:16;;;;;;;5.87;3.13;;;;;;;16.13;71.35;96653.81;5047252;28;20233;-70
2021/08/28 00:26:42;;;;;;;3.80;3.43;;;;;;;16.01;71.56;96652.78;4996077;28;20243;-71
2021/08/28 00:29:08;;;;;;;4.77;3.20;;;;;;;16.05;71.45;96652.19;5034015;28;20218;-70
2021/08/28 00:31:33;;;;;;;6.90;3.63;;;;;;;16.31;70.68;96650.59;5018471;28;20285;-72
2021/08/28 00:33:59;;;;;;;3.57;3.27;;;;;;;15.99;71.81;96653.00;5043234;28;20194;-69
2021/08/28 00:36:25;;;;;;;6.07;3.60;;;;;;;16.06;71.44;96655.66;5051377;28;20179;-70
2021/08/28 00:38:50;;;;;;;4.93;3.90;;;;;;;15.87;72.52;96655.41;5046001;28;20234;-70
2021/08/28 00:41:16;;;;;;;4.93;3.57;;;;;;;15.75;72.82;96656.97;5049183;28;20210;-70
2021/08/28 00:43:42;;;;;;;7.83;3.80;;;;;;;15.89;72.39;96649.91;5050020;28;20229;-70
2021/08/28 00:46:08;;;;;;;4.50;3.40;;;;;;;16.06;71.53;96648.53;5051821;28;20869;-70
2021/08/28 00:48:33;;;;;;;4.93;3.80;;;;;;;15.98;71.99;96648.72;5050978;28;20210;-69
2021/08/28 00:50:59;;;;;;;4.53;3.60;;;;;;;15.96;71.70;96654.19;5044034;28;20615;-70
2021/08/28 00:53:24;;;;;;;5.97;4.13;;;;;;;15.70;72.85;96654.91;5049347;28;20654;-71
2021/08/28 00:55:51;;;;;;;5.67;3.43;;;;;;;16.11;71.05;96651.41;5043636;28;20198;-70
2021/08/28 00:58:17;;;;;;;5.20;4.03;;;;;;;15.97;71.47;96655.03;5043630;28;20654;-69
2021/08/28 01:00:44;;;;;;;4.03;3.50;;;;;;;15.95;71.62;96647.28;5052294;28;21097;-69
2021/08/28 01:03:11;;;;;;;7.80;3.87;;;;;;;16.07;71.22;96644.88;5052136;28;20441;-70
2021/08/28 01:06:09;;;;;;;6.07;3.60;;;;;;;15.71;72.37;96651.25;5051259;28;20512;-69
2021/08/28 01:08:54;;;;;;;4.30;3.70;;;;;;;15.90;71.88;96648.88;5046674;28;20428;-70
2021/08/28 01:11:32;;;;;;;4.37;3.60;;;;;;;15.84;71.80;96645.19;5051973;28;20445;-69
2021/08/28 01:14:06;;;;;;;7.50;3.60;;;;;;;16.09;70.90;96642.84;5050877;28;20429;-69
2021/08/28 01:16:32;;;;;;;8.27;4.10;;;;;;;15.78;71.44;96636.22;5039167;28;20473;-69
2021/08/28 01:18:58;;;;;;;5.53;3.80;;;;;;;15.69;72.36;96645.34;5035443;28;20514;-69
2021/08/28 01:21:32;;;;;;;6.90;3.90;;;;;;;15.78;72.03;96644.16;5050132;28;20465;-69
2021/08/28 01:24:00;;;;;;;5.20;3.40;;;;;;;15.88;71.50;96648.31;5050712;28;20424;-69
2021/08/28 01:26:36;;;;;;;3.50;3.20;;;;;;;16.00;71.02;96646.69;5051380;28;20425;-70
2021/08/28 01:29:22;;;;;;;5.10;3.30;;;;;;;15.59;72.13;96650.22;5050423;28;20425;-70
2021/08/28 01:31:49;;;;;;;4.53;3.10;;;;;;;15.82;71.66;96649.84;5043716;28;20425;-70
2021/08/28 01:34:16;;;;;;;5.00;3.50;;;;;;;15.97;71.06;96649.75;5050805;28;20433;-69
2021/08/28 01:36:43;;;;;;;5.30;3.90;;;;;;;15.52;72.53;96653.63;5050801;28;20426;-69
2021/08/28 01:39:09;;;;;;;4.10;3.70;;;;;;;16.00;71.00;96649.34;5049995;28;20858;-68
2021/08/28 01:41:36;;;;;;;6.40;3.80;;;;;;;15.94;70.78;96640.34;5050920;28;20557;-71
2021/08/28 01:44:02;;;;;;;7.90;4.07;;;;;;;16.01;70.87;96645.66;5049283;28;20422;-69
2021/08/28 01:46:28;;;;;;;7.20;4.30;;;;;;;15.70;72.12;96640.88;5053967;28;20839;-69
2021/08/28 01:48:54;;;;;;;5.00;3.87;;;;;;;16.12;70.74;96646.91;5048608;28;20216;-71
2021/08/28 01:51:20;;;;;;;5.00;3.93;;;;;;;16.16;70.43;96640.22;5046749;28;20199;-70
2021/08/28 01:53:45;;;;;;;8.03;3.67;;;;;;;16.09;70.48;96636.72;5053884;28;20262;-70
2021/08/28 01:56:11;;;;;;;3.80;3.50;;;;;;;16.01;70.51;96640.38;5054306;28;20970;-70
2021/08/28 01:58:37;;;;;;;4.43;3.70;;;;;;;16.02;70.52;96635.91;5050682;28;20187;-71
2021/08/28 02:01:02;;;;;;;9.63;4.53;;;;;;;15.82;71.42;96641.94;5049646;28;20472;-71
2021/08/28 02:03:28;;;;;;;5.30;4.13;;;;;;;15.69;71.80;96637.44;5054065;28;20232;-70
2021/08/28 02:06:01;;;;;;;4.70;4.30;;;;;;;15.55;72.86;96643.69;5054808;28;20189;-70
2021/08/28 02:08:31;;;;;;;5.57;4.07;;;;;;;15.64;72.40;96640.69;5035421;28;20179;-71
2021/08/28 02:10:59;;;;;;;5.33;4.17;;;;;;;15.89;71.69;96636.69;5053034;28;20445;-70
2021/08/28 02:13:40;;;;;;;5.30;4.80;;;;;;;15.99;71.01;96637.13;5053721;28;20793;-70
2021/08/28 02:16:11;;;;;;;6.53;4.57;;;;;;;15.84;71.34;96637.25;5054293;28;20432;-70
2021/08/28 02:18:52;;;;;;;5.33;4.60;;;;;;;15.62;72.05;96631.34;5047058;28;20430;-69
2021/08/28 02:21:19;;;;;;;5.47;4.40;;;;;;;15.48;72.79;96628.66;5049573;28;20571;-69
2021/08/28 02:23:54;;;;;;;5.40;4.37;;;;;;;15.67;72.11;96634.19;5051759;28;20938;-69
2021/08/28 02:26:22;;;;;;;8.20;5.23;;;;;;;15.73;71.79;96627.28;5051992;28;20428;-68
2021/08/28 02:28:54;;;;;;;7.13;5.50;;;;;;;15.68;71.85;96632.38;5052652;28;20436;-70
2021/08/28 02:31:22;;;;;;;7.03;5.93;;;;;;;15.87;71.49;96638.75;5035694;28;20490;-69
2021/08/28 02:33:48;;;;;;;6.63;5.93;;;;;;;15.61;71.88;96638.44;5053181;28;20425;-69
2021/08/28 02:36:14;;;;;;;7.00;5.60;;;;;;;15.79;71.82;96643.16;5052014;28;20471;-69
2021/08/28 02:38:41;;;;;;;8.57;6.83;;;;;;;15.84;71.75;96641.75;5052753;28;20198;-69
2021/08/28 02:41:07;;;;;;;8.33;6.10;;;;;;;15.79;71.87;96637.06;5044246;28;20462;-69
2021/08/28 02:43:33;;;;;;;6.67;5.97;;;;;;;15.93;70.96;96643.22;5051785;28;20790;-69
2021/08/28 02:45:59;;;;;;;9.23;5.57;;;;;;;16.12;70.31;96634.53;5043504;28;20440;-70
2021/08/28 02:48:26;;;;;;;6.40;5.60;;;;;;;15.93;71.08;96638.75;5052621;28;20187;-69
2021/08/28 02:50:54;;;;;;;11.70;7.07;;;;;;;15.80;71.59;96639.50;5043768;28;20502;-71
2021/08/28 02:53:21;;;;;;;9.20;6.60;;;;;;;15.92;71.08;96641.59;5065637;28;20432;-70
2021/08/28 02:55:48;;;;;;;8.90;7.30;;;;;;;15.69;71.97;96637.44;5068249;28;20430;-70
2021/08/28 02:58:14;;;;;;;10.60;6.80;;;;;;;15.97;71.24;96634.69;5062628;28;20940;-69
2021/08/28 03:00:42;;;;;;;8.40;6.53;;;;;;;16.08;70.74;96646.50;5073107;28;20437;-70
2021/08/28 03:03:09;;;;;;;8.47;6.73;;;;;;;16.06;70.53;96643.25;5066399;28;20426;-70
2021/08/28 03:05:34;;;;;;;8.13;7.33;;;;;;;15.74;71.68;96640.31;5050942;28;20429;-69
2021/08/28 03:08:00;;;;;;;10.37;7.47;;;;;;;15.82;71.83;96639.28;5035566;28;20430;-69
2021/08/28 03:10:25;;;;;;;12.37;9.30;;;;;;;15.44;72.97;96640.59;5034413;28;20198;-69
2021/08/28 03:12:51;;;;;;;15.90;10.57;;;;;;;15.60;72.92;96636.00;5034975;28;20236;-68
2021/08/28 03:15:17;;;;;;;15.50;10.87;;;;;;;15.47;73.06;96634.94;5051243;28;20297;-68
2021/08/28 03:17:43;;;;;;;13.57;10.77;;;;;;;15.67;72.45;96631.53;5051554;28;20187;-69
2021/08/28 03:20:09;;;;;;;12.50;10.10;;;;;;;15.71;72.58;96631.94;5042523;28;20206;-68
2021/08/28 03:22:36;;;;;;;12.40;9.90;;;;;;;15.73;72.55;96632.56;5052591;28;20491;-69
2021/08/28 03:25:05;;;;;;;16.23;9.80;;;;;;;15.79;72.36;96632.59;5050918;28;20426;-68
2021/08/28 03:27:31;;;;;;;14.10;10.80;;;;;;;15.84;72.31;96631.19;5035237;28;20417;-69
2021/08/28 03:29:57;;;;;;;12.33;10.73;;;;;;;16.00;71.66;96622.91;5050789;28;20963;-68
2021/08/28 03:32:23;;;;;;;18.40;11.50;;;;;;;15.61;73.26;96624.41;5051980;28;20232;-69
2021/08/28 03:34:49;;;;;;;13.07;10.33;;;;;;;15.76;72.64;96621.59;5049494;28;20425;-69
2021/08/28 03:37:14;;;;;;;17.30;12.93;;;;;;;15.50;73.37;96631.06;5050277;28;20793;-68
2021/08/28 03:39:40;;;;;;;17.50;13.43;;;;;;;15.42;73.85;96624.13;5033179;28;20198;-69
2021/08/28 03:42:07;;;;;;;16.43;12.70;;;;;;;15.64;73.30;96622.19;5049804;28;20206;-69
2021/08/28 03:44:37;;;;;;;16.90;13.53;;;;;;;15.73;72.76;96616.72;5049526;28;20426;-69
2021/08/28 03:47:03;;;;;;;21.50;15.43;;;;;;;15.48;73.79;96626.00;5018190;28;20796;-67
2021/08/28 03:49:28;;;;;;;23.53;15.53;;;;;;;15.52;73.89;96623.78;5016974;28;20428;-68
2021/08/28 03:51:54;;;;;;;19.33;15.00;;;;;;;15.50;73.78;96623.16;5032032;28;20679;-69
2021/08/28 03:54:20;;;;;;;24.33;17.23;;;;;;;15.33;74.42;96628.75;5049551;28;20270;-68
2021/08/28 03:56:45;;;;;;;21.90;16.43;;;;;;;14.96;75.94;96622.09;5051954;28;20179;-68
2021/08/28 03:59:11;;;;;;;26.50;18.27;;;;;;;15.14;75.71;96625.03;5051109;28;20179;-68
2021/08/28 04:01:36;;;;;;;25.07;17.30;;;;;;;15.24;74.77;96629.16;5049922;28;20221;-69
2021/08/28 04:04:02;;;;;;;23.50;18.40;;;;;;;15.35;74.85;96625.94;5051123;28;20187;-68
2021/08/28 04:06:27;;;;;;;20.97;16.90;;;;;;;14.99;76.26;96627.00;5051553;28;20202;-68
2021/08/28 04:08:53;;;;;;;21.87;17.60;;;;;;;15.25;75.29;96626.31;5036168;28;20212;-69
2021/08/28 04:11:19;;;;;;;24.57;17.20;;;;;;;15.15;75.65;96626.66;5048101;28;20206;-68
2021/08/28 04:13:44;;;;;;;22.20;16.93;;;;;;;15.16;75.91;96633.56;5050686;28;20670;-68
2021/08/28 04:16:10;;;;;;;25.37;18.03;;;;;;;15.13;76.30;96626.03;5051421;28;20194;-68
2021/08/28 04:18:35;;;;;;;25.37;18.90;;;;;;;15.16;75.99;96627.47;5046535;28;20264;-69
2021/08/28 04:21:01;;;;;;;24.20;19.00;;;;;;;15.48;74.62;96619.88;5047697;28;20301;-68
2021/08/28 04:23:26;;;;;;;23.40;17.53;;;;;;;15.62;74.04;96626.06;5050372;28;20639;-69
2021/08/28 04:25:52;;;;;;;29.40;20.53;;;;;;;15.16;75.99;96635.41;5051483;28;20275;-67
2021/08/28 04:28:17;;;;;;;30.13;20.57;;;;;;;15.05;75.89;96637.59;5049489;28;20285;-72
2021/08/28 04:30:43;;;;;;;32.00;20.33;;;;;;;15.36;75.57;96633.66;5050437;28;20223;-70
2021/08/28 04:33:09;;;;;;;24.93;19.67;;;;;;;15.54;74.83;96631.47;5051225;28;20215;-70
2021/08/28 04:35:35;;;;;;;28.37;19.40;;;;;;;15.60;74.35;96634.16;5050538;28;20218;-71
2021/08/28 04:38:01;;;;;;;26.03;18.67;;;;;;;15.70;74.21;96631.16;5048628;28;20352;-69
2021/08/28 04:40:26;;;;;;;24.03;18.50;;;;;;;15.42;75.09;96639.19;5024257;28;20964;-69
2021/08/28 04:42:52;;;;;;;23.70;18.97;;;;;;;15.44;75.12;96637.97;5050981;28;20457;-69
2021/08/28 04:45:18;;;;;;;23.00;18.33;;;;;;;15.54;74.83;96631.47;5050541;28;20187;-68
2021/08/28 04:47:44;;;;;;;26.53;18.97;;;;;;;15.24;75.90;96637.06;5050347;28;20654;-69
2021/08/28 04:50:10;;;;;;;25.43;18.37;;;;;;;14.87;76.25;96643.34;5050753;28;20214;-70
2021/08/28 04:52:36;;;;;;;25.27;18.40;;;;;;;15.31;75.75;96635.25;5051210;28;20650;-69
2021/08/28 04:55:01;;;;;;;25.90;19.03;;;;;;;15.45;74.99;96641.41;5048974;28;20438;-68
2021/08/28 04:57:27;;;;;;;24.63;18.07;;;;;;;15.27;75.81;96645.41;5050626;28;20183;-70
2021/08/28 04:59:52;;;;;;;28.17;18.93;;;;;;;15.48;75.31;96646.28;5051027;28;20194;-68
2021/08/28 05:02:18;;;;;;;25.00;20.07;;;;;;;15.60;74.39;96638.63;5050611;28;20241;-70
2021/08/28 05:04:43;;;;;;;25.30;19.60;;;;;;;15.41;75.09;96646.25;5049902;28;20549;-70
2021/08/28 05:07:09;;;;;;;26.77;19.37;;;;;;;15.28;76.35;96643.56;5049230;28;20273;-70
2021/08/28 05:09:35;;;;;;;28.83;20.13;;;;;;;15.35;75.65;96644.44;5041423;28;20194;-69
2021/08/28 05:12:00;;;;;;;23.20;18.70;;;;;;;15.31;76.21;96645.81;5049411;28;20441;-70
2021/08/28 05:14:26;;;;;;;27.80;19.40;;;;;;;15.00;76.76;96650.53;5049993;28;20179;-69
2021/08/28 05:16:52;;;;;;;26.33;19.53;;;;;;;15.13;76.43;96660.34;5045257;28;20187;-70
2021/08/28 05:19:17;;;;;;;27.23;18.93;;;;;;;15.36;75.75;96656.63;5040595;28;20242;-69
2021/08/28 05:21:44;;;;;;;27.37;19.50;;;;;;;15.29;75.89;96658.41;5053103;28;20650;-69
2021/08/28 05:24:10;;;;;;;25.57;19.10;;;;;;;15.26;75.25;96664.06;5052477;28;20182;-69
2021/08/28 05:26:36;;;;;;;23.30;18.60;;;;;;;14.86;77.42;96660.19;5053481;28;20436;-68
2021/08/28 05:29:01;;;;;;;27.30;19.57;;;;;;;15.35;76.04;96668.19;5055045;28;20237;-69
2021/08/28 05:31:27;;;;;;;26.70;20.03;;;;;;;15.24;76.41;96666.09;5054017;28;20282;-70
2021/08/28 05:33:52;;;;;;;29.53;19.37;;;;;;;15.24;76.04;96666.09;5052835;28;20273;-69
2021/08/28 05:36:18;;;;;;;27.00;20.10;;;;;;;15.09;76.78;96669.66;5053001;28;20178;-70
2021/08/28 05:38:43;;;;;;;26.00;19.57;;;;;;;15.05;76.62;96666.63;5054705;28;20202;-70
2021/08/28 05:41:09;;;;;;;25.17;20.70;;;;;;;14.86;77.55;96665.47;5053874;28;20678;-70
2021/08/28 05:43:36;;;;;;;28.17;19.83;;;;;;;14.65;77.48;96662.84;5054099;28;20179;-69
2021/08/28 05:46:02;;;;;;;29.10;20.20;;;;;;;15.11;76.29;96672.94;5053993;28;20187;-69
2021/08/28 05:48:27;;;;;;;26.73;18.30;;;;;;;14.92;76.85;96674.44;5049868;28;20447;-69
2021/08/28 05:50:53;;;;;;;23.93;19.43;;;;;;;15.42;75.51;96673.50;5054419;28;20441;-70
2021/08/28 05:53:18;;;;;;;27.43;20.30;;;;;;;15.05;75.77;96669.25;5051883;28;20595;-69
2021/08/28 05:55:44;;;;;;;25.53;19.70;;;;;;;14.80;76.41;96668.88;5054250;28;20717;-68
2021/08/28 05:58:10;;;;;;;26.13;19.30;;;;;;;15.30;75.22;96670.59;5053002;28;20241;-69
2021/08/28 06:00:35;;;;;;;27.33;20.90;;;;;;;15.39;74.81;96676.53;5051762;28;20205;-70
2021/08/28 06:03:01;;;;;;;25.60;19.97;;;;;;;14.93;76.80;96670.78;5054314;28;20694;-70
2021/08/28 06:05:26;;;;;;;24.67;18.37;;;;;;;15.31;74.94;96672.22;5051237;28;20170;-69
2021/08/28 06:07:52;;;;;;;25.23;19.20;;;;;;;15.26;75.06;96680.72;5054325;28;20290;-70
2021/08/28 06:10:17;;;;;;;25.30;18.80;;;;;;;15.20;75.49;96681.50;5053680;28;20661;-67
2021/08/28 06:12:43;;;;;;;26.40;17.70;;;;;;;15.40;75.02;96676.31;5053099;28;20179;-70
2021/08/28 06:15:09;;;;;;;23.80;19.20;;;;;;;15.31;75.06;96675.66;5053040;28;20195;-69
2021/08/28 06:17:35;;;;;;;23.23;17.90;;;;;;;15.41;74.78;96683.22;5050557;28;20198;-67
2021/08/28 06:20:01;;;;;;;24.87;18.97;;;;;;;15.46;74.13;96680.00;5045542;28;20439;-69
2021/08/28 06:22:26;;;;;;;20.50;17.10;;;;;;;15.30;74.54;96681.16;5052937;28;20256;-68
2021/08/28 06:24:52;;;;;;;20.77;15.90;;;;;;;15.58;73.71;96682.91;5052485;28;20191;-69
2021/08/28 06:27:17;;;;;;;19.33;16.60;;;;;;;15.59;73.08;96687.97;5053166;28;20716;-67
2021/08/28 06:29:43;;;;;;;18.73;16.13;;;;;;;15.60;72.86;96684.34;5053314;28;20183;-70
2021/08/28 06:32:09;;;;;;;21.40;15.07;;;;;;;15.80;72.39;96687.03;5053557;28;20199;-69
2021/08/28 06:34:34;;;;;;;21.43;16.67;;;;;;;15.77;72.43;96684.78;5053122;28;20183;-69
2021/08/28 06:37:00;;;;;;;18.70;15.70;;;;;;;15.62;73.40;96692.06;5053552;28;20183;-68
2021/08/28 06:39:25;;;;;;;20.90;17.77;;;;;;;15.36;74.59;96686.47;5053185;28;20194;-69
2021/08/28 06:41:51;;;;;;;20.57;17.40;;;;;;;15.74;73.33;96687.84;5052281;28;20246;-69
2021/08/28 06:44:17;;;;;;;19.77;16.00;;;;;;;15.61;73.53;96688.59;5052864;28;20186;-69
2021/08/28 06:46:43;;;;;;;22.10;17.47;;;;;;;15.43;74.24;96689.13;5053355;28;20793;-68
2021/08/28 06:49:08;;;;;;;18.73;16.73;;;;;;;15.42;74.55;96691.97;5048806;28;20191;-68
2021/08/28 06:51:34;;;;;;;22.80;17.17;;;;;;;15.71;73.14;96690.88;5053174;28;20202;-69
2021/08/28 06:54:00;;;;;;;20.87;17.00;;;;;;;15.61;73.38;96687.81;5053342;28;20197;-69
2021/08/28 06:56:26;;;;;;;27.00;17.37;;;;;;;15.56;73.36;96691.03;5053001;28;20505;-70
2021/08/28 06:58:51;;;;;;;20.77;16.97;;;;;;;15.41;73.64;96690.34;5053351;28;20195;-71
2021/08/28 07:01:17;;;;;;;20.37;15.70;;;;;;;15.81;72.38;96686.03;5052247;28;20218;-70
2021/08/28 07:03:43;;;;;;;18.57;14.77;;;;;;;16.05;71.01;96691.03;5052249;28;20564;-70
2021/08/28 07:06:08;;;;;;;15.40;13.70;;;;;;;15.73;72.22;96680.94;5053029;28;20206;-71
2021/08/28 07:08:34;;;;;;;15.90;14.20;;;;;;;16.04;71.45;96687.56;5051070;28;20195;-70
2021/08/28 07:10:59;;;;;;;15.50;13.83;;;;;;;16.05;71.14;96675.16;5052766;28;20207;-68
2021/08/28 07:13:26;;;;;;;14.30;12.80;;;;;;;16.01;70.18;96671.28;5052163;28;20266;-69
2021/08/28 07:15:52;;;;;;;15.53;11.87;;;;;;;16.50;68.86;96664.84;5053073;28;20201;-69
2021/08/28 07:18:18;;;;;;;12.60;11.30;;;;;;;17.27;65.97;96669.66;5046950;28;20421;-67
2021/08/28 07:20:43;;;;;;;13.40;10.90;;;;;;;17.75;64.43;96675.59;5045900;28;20445;-70
2021/08/28 07:23:09;;;;;;;11.13;8.83;;;;;;;16.94;65.15;96664.41;5052644;28;20206;-69
2021/08/28 07:25:37;;;;;;;11.60;9.30;;;;;;;17.25;65.34;96661.13;5052548;28;20187;-69
2021/08/28 07:28:04;;;;;;;9.33;8.43;;;;;;;17.56;63.48;96661.44;5034238;28;20194;-69
2021/08/28 07:30:30;;;;;;;7.90;7.20;;;;;;;18.18;61.14;96653.78;5052865;28;20441;-70
2021/08/28 07:32:56;;;;;;;6.63;5.77;;;;;;;17.83;59.96;96656.81;5052577;28;20432;-70
2021/08/28 07:35:21;;;;;;;6.50;5.90;;;;;;;17.49;61.30;96666.75;5051607;28;20187;-69
2021/08/28 07:37:47;;;;;;;6.60;5.90;;;;;;;17.46;61.05;96664.50;5051825;28;20437;-69
2021/08/28 07:40:13;;;;;;;7.07;6.07;;;;;;;17.38;62.65;96670.84;5043368;28;20184;-70
2021/08/28 07:42:38;;;;;;;8.80;6.30;;;;;;;17.40;61.26;96663.50;5045700;28;20280;-70
2021/08/28 07:45:04;;;;;;;7.70;7.00;;;;;;;17.41;61.49;96666.97;5050656;28;20183;-69
2021/08/28 07:47:30;;;;;;;7.33;6.73;;;;;;;17.00;62.67;96663.59;5033302;28;20215;-70
2021/08/28 07:49:55;;;;;;;9.33;6.80;;;;;;;17.40;62.08;96666.16;5052764;28;20620;-71
2021/08/28 07:52:21;;;;;;;12.50;6.90;;;;;;;17.49;62.20;96677.34;5052390;28;20206;-70
2021/08/28 07:54:47;;;;;;;6.40;5.73;;;;;;;17.02;61.84;96667.66;5040630;28;20596;-72
2021/08/28 07:57:12;;;;;;;5.73;5.23;;;;;;;17.00;62.59;96663.59;5048427;28;20183;-70
2021/08/28 07:59:38;;;;;;;8.23;5.50;;;;;;;17.69;61.06;96671.13;5050305;28;20657;-69
2021/08/28 08:02:03;;;;;;;5.97;5.43;;;;;;;17.41;61.83;96678.38;5052461;28;20203;-69
2021/08/28 08:04:29;;;;;;;4.93;4.33;;;;;;;16.83;61.92;96682.53;5051976;28;20253;-68
2021/08/28 08:06:55;;;;;;;11.40;4.50;;;;;;;16.67;61.87;96682.97;5052227;28;20654;-70
2021/08/28 08:09:20;;;;;;;5.67;5.13;;;;;;;16.33;63.92;96698.81;5050142;28;20179;-68
2021/08/28 08:11:46;;;;;;;5.87;5.27;;;;;;;16.80;63.49;96688.25;5050411;28;20207;-69
2021/08/28 08:14:12;;;;;;;6.63;5.60;;;;;;;17.40;61.84;96689.16;5050935;28;20186;-71
2021/08/28 08:16:37;;;;;;;6.13;5.37;;;;;;;17.34;62.35;96690.81;5051972;28;20978;-68
2021/08/28 08:19:03;;;;;;;6.20;5.60;;;;;;;17.59;61.84;96693.59;5039872;28;20198;-68
2021/08/28 08:21:29;;;;;;;7.20;5.67;;;;;;;17.29;61.78;96688.78;5050403;28;20701;-69
2021/08/28 08:23:55;;;;;;;6.60;5.20;;;;;;;17.15;61.90;96689.84;5051421;28;20422;-69
2021/08/28 08:26:20;;;;;;;5.37;4.87;;;;;;;17.34;60.84;96690.81;5050016;28;20273;-69
2021/08/28 08:28:46;;;;;;;5.13;4.63;;;;;;;16.67;62.52;96702.28;5051327;28;20186;-69
2021/08/28 08:31:11;;;;;;;5.07;4.60;;;;;;;16.73;63.07;96685.59;5051367;28;20206;-70
2021/08/28 08:33:38;;;;;;;7.37;4.83;;;;;;;17.25;62.08;96692.91;5050790;28;20210;-69
2021/08/28 08:36:04;;;;;;;6.03;4.10;;;;;;;17.03;62.58;96689.66;5050289;28;20214;-69
2021/08/28 08:38:30;;;;;;;5.33;4.70;;;;;;;16.85;61.42;96688.44;5051238;28;20883;-68
2021/08/28 08:40:56;;;;;;;4.57;4.13;;;;;;;17.10;61.16;96685.16;5033446;28;20194;-69
2021/08/28 08:43:22;;;;;;;4.77;4.37;;;;;;;17.29;60.29;96694.09;5050324;28;20277;-70
2021/08/28 08:45:48;;;;;;;4.40;4.00;;;;;;;16.98;61.22;96692.13;5041795;28;20179;-70
2021/08/28 08:48:14;;;;;;;5.40;3.97;;;;;;;17.02;61.70;96688.03;5046590;28;20429;-70
2021/08/28 08:50:40;;;;;;;4.53;4.13;;;;;;;17.13;62.40;96698.00;5049865;28;20962;-70
2021/08/28 08:53:07;;;;;;;7.40;4.90;;;;;;;16.94;63.41;96697.00;5033520;28;20943;-71
2021/08/28 08:55:33;;;;;;;4.20;3.83;;;;;;;16.77;63.78;96693.94;5048773;28;20245;-70
2021/08/28 08:57:59;;;;;;;4.57;4.10;;;;;;;17.03;63.96;96700.25;5051351;28;20425;-70
2021/08/28 09:00:25;;;;;;;5.53;4.13;;;;;;;17.00;63.45;96696.19;5051151;28;20449;-70
2021/08/28 09:02:51;;;;;;;3.70;3.40;;;;;;;16.91;63.34;96697.38;5042755;28;20500;-68
2021/08/28 09:05:16;;;;;;;6.03;4.57;;;;;;;17.10;63.12;96705.56;5049890;28;20924;-70
2021/08/28 09:07:42;;;;;;;5.67;5.17;;;;;;;17.29;64.04;96706.53;5051963;28;20248;-69
2021/08/28 09:10:08;;;;;;;8.47;6.30;;;;;;;16.92;64.85;96704.31;5051362;28;20581;-69
2021/08/28 09:12:39;;;;;;;9.07;7.17;;;;;;;17.59;62.48;96698.91;5050719;28;20274;-69
2021/08/28 09:15:07;;;;;;;6.60;6.00;;;;;;;17.88;61.89;96704.72;5050021;28;20421;-70
2021/08/28 09:17:33;;;;;;;8.97;6.00;;;;;;;17.95;61.02;96705.47;5046358;28;20418;-71
2021/08/28 09:20:00;;;;;;;6.63;6.03;;;;;;;17.64;61.86;96709.66;5042015;28;20440;-69
2021/08/28 09:22:30;;;;;;;6.77;5.33;;;;;;;18.13;59.36;96714.59;5049431;28;20211;-70
2021/08/28 09:24:59;;;;;;;5.60;5.10;;;;;;;17.98;60.12;96716.72;5050021;28;20796;-70
2021/08/28 09:27:41;;;;;;;12.10;5.07;;;;;;;17.66;62.46;96710.28;5050800;28;20429;-68
2021/08/28 09:30:19;;;;;;;5.30;4.80;;;;;;;17.27;63.28;96719.16;5050060;28;20467;-70
2021/08/28 09:32:50;;;;;;;4.47;4.07;;;;;;;17.19;62.59;96715.72;5050757;28;20956;-68
2021/08/28 09:35:17;;;;;;;4.33;3.20;;;;;;;17.01;62.79;96710.25;5050201;28;20418;-69
2021/08/28 09:37:43;;;;;;;5.10;3.27;;;;;;;17.07;61.73;96717.38;5041424;28;20433;-70
2021/08/28 09:40:09;;;;;;;5.03;3.67;;;;;;;17.28;62.53;96716.28;5049490;28;20444;-69
2021/08/28 09:42:37;;;;;;;4.53;4.13;;;;;;;17.51;62.83;96722.97;5049299;28;20558;-69
2021/08/28 09:45:11;;;;;;;3.80;3.50;;;;;;;17.06;61.98;96725.50;5049748;28;20198;-69
2021/08/28 09:47:40;;;;;;;3.20;3.00;;;;;;;16.90;63.16;96722.22;5033344;28;20483;-70
2021/08/28 09:50:06;;;;;;;3.50;3.20;;;;;;;17.14;61.89;96725.28;5048220;28;20772;-70
2021/08/28 09:52:32;;;;;;;3.20;2.90;;;;;;;17.17;62.19;96727.53;5050926;28;20432;-69
2021/08/28 09:54:57;;;;;;;3.30;3.00;;;;;;;17.31;62.09;96726.47;5048868;28;20440;-70
2021/08/28 09:57:30;;;;;;;4.10;3.37;;;;;;;16.27;63.80;96729.50;5050793;28;20194;-67
2021/08/28 09:59:59;;;;;;;3.40;3.10;;;;;;;15.95;64.87;96731.03;5047906;28;20244;-69
2021/08/28 10:02:25;;;;;;;3.97;3.53;;;;;;;16.24;65.07;96729.09;5050334;28;20461;-67
2021/08/28 10:04:54;;;;;;;3.40;3.10;;;;;;;16.12;65.57;96727.03;5049802;28;20448;-71
2021/08/28 10:07:25;;;;;;;3.50;3.30;;;;;;;16.19;65.90;96726.22;5049691;28;20195;-70
2021/08/28 10:10:00;;;;;;;4.13;3.83;;;;;;;16.73;64.92;96727.94;5053900;28;20520;-69
2021/08/28 10:12:26;;;;;;;3.77;3.50;;;;;;;16.78;65.25;96739.72;5054073;28;20436;-69
2021/08/28 10:14:54;;;;;;;4.27;3.97;;;;;;;16.63;66.34;96724.88;5052960;28;20425;-70
2021/08/28 10:17:21;;;;;;;4.40;4.00;;;;;;;17.14;66.19;96727.91;5051206;28;20962;-69
2021/08/28 10:19:51;;;;;;;5.50;4.30;;;;;;;17.50;65.07;96721.34;5027817;28;20436;-70
2021/08/28 10:22:22;;;;;;;4.47;4.07;;;;;;;16.25;67.38;96728.09;5052217;28;20489;-70
2021/08/28 10:24:49;;;;;;;5.33;4.37;;;;;;;16.35;68.29;96731.16;5052437;28;20859;-69
2021/08/28 10:27:16;;;;;;;6.97;5.77;;;;;;;16.25;66.97;96730.72;5045793;28;20926;-70
2021/08/28 10:29:42;;;;;;;12.00;4.37;;;;;;;16.32;68.02;96728.09;5045374;28;20843;-70
2021/08/28 10:32:08;;;;;;;4.80;4.40;;;;;;;16.71;66.63;96724.69;5052457;28;20525;-71
2021/08/28 10:34:33;;;;;;;5.40;3.83;;;;;;;16.37;66.95;96729.13;5052874;28;20429;-70
2021/08/28 10:36:59;;;;;;;4.03;3.07;;;;;;;16.07;66.35;96733.91;5053527;28;20183;-69
2021/08/28 10:39:24;;;;;;;5.57;3.47;;;;;;;16.54;66.81;96731.38;5053100;28;20246;-69
2021/08/28 10:41:51;;;;;;;3.73;3.53;;;;;;;16.81;65.51;96723.44;5051493;28;20215;-69
2021/08/28 10:44:16;;;;;;;6.90;3.50;;;;;;;16.59;66.91;96729.75;5051609;28;20198;-69
2021/08/28 10:46:42;;;;;;;4.37;3.33;;;;;;;17.13;66.42;96727.13;5035516;28;20457;-71
2021/08/28 10:49:08;;;;;;;4.83;3.53;;;;;;;17.60;65.36;96726.19;5048252;28;20185;-69
2021/08/28 10:51:36;;;;;;;5.63;3.53;;;;;;;17.92;64.12;96729.75;5049218;28;20200;-70
2021/08/28 10:54:24;;;;;;;3.97;3.53;;;;;;;18.22;62.64;96728.41;5049214;28;20948;-69
2021/08/28 10:56:50;;;;;;;5.13;4.57;;;;;;;18.32;63.04;96720.00;5042763;28;20636;-69
2021/08/28 10:59:28;;;;;;;5.57;4.50;;;;;;;17.57;64.01;96722.13;5051722;28;20925;-69
2021/08/28 11:02:00;;;;;;;4.00;3.70;;;;;;;17.31;64.62;96725.69;5051910;28;20796;-70
2021/08/28 11:04:29;;;;;;;4.47;4.07;;;;;;;17.99;61.93;96727.09;5052641;28;20428;-68
2021/08/28 11:07:21;;;;;;;6.73;6.07;;;;;;;17.66;63.45;96722.72;5044327;28;20525;-70
2021/08/28 11:10:07;;;;;;;5.07;4.67;;;;;;;18.34;61.97;96728.56;5040344;28;20424;-69
2021/08/28 11:12:44;;;;;;;5.60;4.40;;;;;;;18.46;63.13;96734.00;5038401;28;20462;-69
2021/08/28 11:15:25;;;;;;;3.70;2.90;;;;;;;18.22;62.37;96733.72;5051190;28;20422;-69
2021/08/28 11:17:54;;;;;;;3.50;3.30;;;;;;;18.36;60.80;96734.47;5049724;28;20418;-70
2021/08/28 11:20:21;;;;;;;3.60;3.30;;;;;;;18.70;60.57;96729.72;5044542;28;20503;-69
2021/08/28 11:22:48;;;;;;;2.60;2.40;;;;;;;18.38;60.22;96727.91;5050992;28;20453;-68
2021/08/28 11:25:13;;;;;;;3.40;3.10;;;;;;;18.18;60.96;96735.19;5052605;28;20907;-67
2021/08/28 11:27:45;;;;;;;2.40;2.20;;;;;;;17.90;60.43;96731.00;5052282;28;20535;-70